createdAt,value
2023-07-06T00:00:21.321Z,64.62
2023-07-06T00:05:24.189Z,64.67
2023-07-06T00:10:26.250Z,65.14
2023-07-06T00:15:28.632Z,65.25
2023-07-06T00:20:34.125Z,63.51
2023-07-06T00:25:36.263Z,64.39
2023-07-06T00:30:56.306Z,65.52
2023-07-06T00:35:58.416Z,65.17
2023-07-06T00:41:00.353Z,65.51
2023-07-06T00:46:11.532Z,65.76
2023-07-06T00:51:18.481Z,65.14
2023-07-06T00:56:26.922Z,65.24
2023-07-06T01:01:28.769Z,65.90
2023-07-06T01:06:35.506Z,66.05
2023-07-06T01:11:37.815Z,65.79
2023-07-06T01:16:58.269Z,64.67
2023-07-06T01:22:27.975Z,66.16
2023-07-06T01:27:43.529Z,63.59
2023-07-06T01:32:53.276Z,66.12
2023-07-06T01:37:56.357Z,66.24
2023-07-06T01:43:00.723Z,66.13
2023-07-06T01:48:06.083Z,66.14
2023-07-06T01:53:35.141Z,64.26
2023-07-06T01:58:44.951Z,65.04
2023-07-06T02:03:51.276Z,65.65
2023-07-06T02:08:53.207Z,66.24
2023-07-06T02:13:55.007Z,66.16
2023-07-06T02:18:59.991Z,67.76
2023-07-06T02:24:01.615Z,67.13
2023-07-06T02:29:03.291Z,66.69
2023-07-06T02:34:05.021Z,66.98
2023-07-06T02:39:06.701Z,68.10
2023-07-06T02:44:08.323Z,67.42
2023-07-06T02:49:09.964Z,66.90
2023-07-06T02:54:15.112Z,67.06
2023-07-06T02:59:16.690Z,65.40
2023-07-06T03:04:18.685Z,66.41
2023-07-06T03:09:20.311Z,68.54
2023-07-06T03:14:23.298Z,65.40
2023-07-06T03:19:25.014Z,66.25
2023-07-06T03:24:27.424Z,67.91
2023-07-06T03:29:32.605Z,68.68
2023-07-06T03:34:34.802Z,68.95
2023-07-06T03:39:37.600Z,69.38
2023-07-06T03:44:40.449Z,68.30
2023-07-06T03:49:42.568Z,67.53
2023-07-06T03:54:46.121Z,69.24
2023-07-06T03:59:47.883Z,70.96
2023-07-06T04:04:49.801Z,72.12
2023-07-06T04:09:51.471Z,67.33
2023-07-06T04:14:55.307Z,66.88
2023-07-06T04:19:57.336Z,68.05
2023-07-06T04:24:58.922Z,68.99
2023-07-06T04:30:00.630Z,69.69
2023-07-06T04:35:02.377Z,70.95
2023-07-06T04:40:14.168Z,70.24
2023-07-06T04:45:18.022Z,67.95
2023-07-06T04:50:23.976Z,68.29
2023-07-06T04:55:30.177Z,67.66
2023-07-06T05:00:34.979Z,69.17
2023-07-06T05:05:46.488Z,68.45
2023-07-06T05:10:53.361Z,66.56
2023-07-06T05:15:55.407Z,65.98
2023-07-06T05:20:58.603Z,65.55
2023-07-06T05:26:06.616Z,67.03
2023-07-06T05:31:08.268Z,68.12
2023-07-06T05:36:09.935Z,67.49
2023-07-06T05:41:11.571Z,68.55
2023-07-06T05:46:13.321Z,67.39
2023-07-06T05:51:14.966Z,64.61
2023-07-06T05:56:19.480Z,67.33
2023-07-06T06:01:23.556Z,69.88
2023-07-06T06:06:28.082Z,68.63
2023-07-06T06:11:29.878Z,67.58
2023-07-06T06:16:34.174Z,66.99
2023-07-06T06:21:35.894Z,66.29
2023-07-06T06:26:37.976Z,68.01
2023-07-06T06:31:44.220Z,64.17
2023-07-06T06:36:46.065Z,60.38
2023-07-06T06:41:48.222Z,60.47
2023-07-06T06:46:49.948Z,60.37
2023-07-06T06:51:51.764Z,64.06
2023-07-06T06:56:54.533Z,66.67
2023-07-06T07:01:57.977Z,67.01
2023-07-06T07:07:04.442Z,61.40
2023-07-06T07:12:06.746Z,62.90
2023-07-06T07:17:11.829Z,63.09
2023-07-06T07:22:13.471Z,61.92
2023-07-06T07:27:16.171Z,64.74
2023-07-06T07:32:21.904Z,63.27
2023-07-06T07:37:23.697Z,61.39
2023-07-06T07:42:27.134Z,61.77
2023-07-06T07:47:28.953Z,60.40
2023-07-06T07:52:30.701Z,62.66
2023-07-06T07:57:32.374Z,63.29
2023-07-06T08:02:34.178Z,62.55
2023-07-06T08:07:35.958Z,58.56
2023-07-06T08:12:37.648Z,57.91
2023-07-06T08:17:39.333Z,56.03
2023-07-06T08:22:42.015Z,53.65
2023-07-06T08:27:43.957Z,55.48
2023-07-06T08:32:47.228Z,54.54
2023-07-06T08:37:48.927Z,56.02
2023-07-06T08:42:50.728Z,56.79
2023-07-06T08:47:52.770Z,55.66
2023-07-06T08:52:54.987Z,53.71
2023-07-06T08:57:56.867Z,52.55
2023-07-06T09:03:09.834Z,53.18
2023-07-06T09:08:14.334Z,54.14
2023-07-06T09:13:24.241Z,60.38
2023-07-06T09:18:25.965Z,58.87
2023-07-06T09:23:27.590Z,62.77
2023-07-06T09:28:30.743Z,60.76
2023-07-06T09:33:33.238Z,58.44
2023-07-06T09:38:44.576Z,58.23
2023-07-06T09:43:46.875Z,55.80
2023-07-06T09:48:48.695Z,55.72
2023-07-06T09:54:16.432Z,54.45
2023-07-06T09:59:18.698Z,55.27
2023-07-06T10:04:38.106Z,57.22
2023-07-06T10:09:45.247Z,55.18
2023-07-06T10:14:52.070Z,56.97
2023-07-06T10:20:20.770Z,53.59
2023-07-06T10:25:47.657Z,49.44
2023-07-06T10:30:53.769Z,51.10
2023-07-06T10:35:59.685Z,52.01
2023-07-06T10:41:13.594Z,49.02
2023-07-06T10:46:52.141Z,46.85
2023-07-06T10:51:57.141Z,46.49
2023-07-06T10:57:02.910Z,44.33
2023-07-06T11:02:22.412Z,45.34
2023-07-06T11:07:43.406Z,46.53
2023-07-06T11:12:56.329Z,45.75
2023-07-06T11:18:04.358Z,47.23
2023-07-06T11:23:14.579Z,46.72
2023-07-06T11:28:23.484Z,47.08
2023-07-06T11:33:43.184Z,48.74
2023-07-06T11:38:59.410Z,47.67
2023-07-06T11:44:26.041Z,47.46
2023-07-06T11:49:45.017Z,45.61
2023-07-06T11:54:53.016Z,46.05
2023-07-06T12:00:34.815Z,46.18
2023-07-06T12:05:39.573Z,45.78
2023-07-06T12:10:43.085Z,45.62
2023-07-06T12:15:44.863Z,44.47
2023-07-06T12:20:51.409Z,42.50
2023-07-06T12:25:57.803Z,45.95
2023-07-06T12:31:04.548Z,44.63
2023-07-06T12:36:06.819Z,44.65
2023-07-06T12:41:13.829Z,43.08
2023-07-06T12:46:15.877Z,41.00
2023-07-06T12:51:22.922Z,41.27
2023-07-06T12:56:26.645Z,42.04
2023-07-06T13:01:34.270Z,41.07
2023-07-06T13:06:50.458Z,41.59
2023-07-06T13:11:57.540Z,42.48
2023-07-06T13:17:06.170Z,39.80
2023-07-06T13:22:11.168Z,41.78
2023-07-06T13:27:18.684Z,43.79
2023-07-06T13:32:22.208Z,45.44
2023-07-06T13:37:27.662Z,45.62
2023-07-06T13:42:30.097Z,41.23
2023-07-06T13:47:32.438Z,43.38
2023-07-06T13:52:53.301Z,42.82
2023-07-06T13:57:55.267Z,43.54
2023-07-06T14:02:57.593Z,41.86
2023-07-06T14:07:59.443Z,40.52
2023-07-06T14:13:01.270Z,39.50
2023-07-06T14:18:03.262Z,40.45
2023-07-06T14:23:06.990Z,41.34
2023-07-06T14:28:09.971Z,41.89
2023-07-06T14:33:15.384Z,41.20
2023-07-06T14:38:17.603Z,42.46
2023-07-06T14:43:20.132Z,41.89
2023-07-06T14:48:21.904Z,41.19
2023-07-06T14:53:23.538Z,41.82
2023-07-06T14:58:28.941Z,42.08
2023-07-06T15:03:30.871Z,42.02
2023-07-06T15:08:33.067Z,41.03
2023-07-06T15:13:35.055Z,40.25
2023-07-06T15:18:36.896Z,40.46
2023-07-06T15:23:40.154Z,41.99
2023-07-06T15:28:42.058Z,41.28
2023-07-06T15:33:43.803Z,41.16
2023-07-06T15:38:45.554Z,42.22
2023-07-06T15:43:47.323Z,43.16
2023-07-06T15:48:49.983Z,43.23
2023-07-06T15:53:51.780Z,43.37
2023-07-06T15:59:01.634Z,46.03
2023-07-06T16:04:04.603Z,45.18
2023-07-06T16:09:06.991Z,44.47
2023-07-06T16:14:16.185Z,44.35
2023-07-06T16:19:19.386Z,45.10
2023-07-06T16:24:21.093Z,45.40
2023-07-06T16:29:22.900Z,45.54
2023-07-06T16:34:24.517Z,44.37
2023-07-06T16:39:26.158Z,48.54
2023-07-06T16:44:28.931Z,45.72
2023-07-06T16:49:30.709Z,46.25
2023-07-06T16:54:32.455Z,45.52
2023-07-06T16:59:34.098Z,46.21
2023-07-06T17:04:35.727Z,45.59
2023-07-06T17:09:37.902Z,45.71
2023-07-06T17:14:39.661Z,46.34
2023-07-06T17:19:41.432Z,46.95
2023-07-06T17:24:43.427Z,48.07
2023-07-06T17:29:45.976Z,48.76
2023-07-06T17:34:48.933Z,48.38
2023-07-06T17:39:51.889Z,46.87
2023-07-06T17:44:54.839Z,46.58
2023-07-06T17:49:57.852Z,50.03
2023-07-06T17:55:01.130Z,50.57
2023-07-06T18:00:05.736Z,50.83
2023-07-06T18:05:09.366Z,51.01
2023-07-06T18:10:13.601Z,51.00
2023-07-06T18:15:16.955Z,50.75
2023-07-06T18:20:19.275Z,51.72
2023-07-06T18:25:23.245Z,54.92
2023-07-06T18:30:24.971Z,54.78
2023-07-06T18:35:27.015Z,52.29
2023-07-06T18:40:28.951Z,49.42
2023-07-06T18:45:41.267Z,49.97
2023-07-06T18:50:45.072Z,51.28
2023-07-06T18:55:47.804Z,54.50
2023-07-06T19:00:50.169Z,50.96
2023-07-06T19:05:53.194Z,49.95
2023-07-06T19:10:56.510Z,50.42
2023-07-06T19:15:59.922Z,51.64
2023-07-06T19:21:03.030Z,50.54
2023-07-06T19:26:04.860Z,49.89
2023-07-06T19:31:07.586Z,50.47
2023-07-06T19:36:10.380Z,51.57
2023-07-06T19:41:13.598Z,48.79
2023-07-06T19:46:21.714Z,47.17
2023-07-06T19:51:28.873Z,47.39
2023-07-06T19:56:32.180Z,48.59
2023-07-06T20:01:36.603Z,48.65
2023-07-06T20:06:49.147Z,48.91
2023-07-06T20:11:52.429Z,48.02
2023-07-06T20:16:55.778Z,48.13
2023-07-06T20:22:00.385Z,51.18
2023-07-06T20:27:03.966Z,51.77
2023-07-06T20:32:07.441Z,53.26
2023-07-06T20:37:11.174Z,53.42
2023-07-06T20:42:14.420Z,52.23
2023-07-06T20:47:17.711Z,51.51
2023-07-06T20:52:25.464Z,51.68
2023-07-06T20:57:28.064Z,52.09
2023-07-06T21:02:30.227Z,51.70
2023-07-06T21:07:31.890Z,51.43
2023-07-06T21:12:34.873Z,52.74
2023-07-06T21:17:36.537Z,52.73
2023-07-06T21:22:38.488Z,51.37
2023-07-06T21:27:40.086Z,52.30
2023-07-06T21:32:44.011Z,52.38
2023-07-06T21:37:45.660Z,51.25
2023-07-06T21:42:47.274Z,50.77
2023-07-06T21:47:48.974Z,51.13
2023-07-06T21:52:50.704Z,52.25
2023-07-06T21:57:52.361Z,53.74
2023-07-06T22:02:54.011Z,53.40
2023-07-06T22:07:55.976Z,52.88
2023-07-06T22:12:58.802Z,52.31
2023-07-06T22:18:00.870Z,53.77
2023-07-06T22:23:02.844Z,57.17
2023-07-06T22:28:04.681Z,58.15
2023-07-06T22:33:07.408Z,59.46
2023-07-06T22:38:09.066Z,57.98
2023-07-06T22:43:10.806Z,57.48
2023-07-06T22:48:12.533Z,57.79
2023-07-06T22:53:14.257Z,59.87
2023-07-06T22:58:16.200Z,58.76
2023-07-06T23:03:21.444Z,60.05
2023-07-06T23:08:23.172Z,59.21
2023-07-06T23:13:24.922Z,58.30
2023-07-06T23:18:26.669Z,57.34
2023-07-06T23:23:29.872Z,58.53
2023-07-06T23:28:35.110Z,59.85
2023-07-06T23:33:41.188Z,57.79
2023-07-06T23:38:44.280Z,56.59
2023-07-06T23:43:46.274Z,56.47
2023-07-06T23:48:52.078Z,57.39
2023-07-06T23:53:54.011Z,58.66
2023-07-06T23:58:55.738Z,59.15
